createdAt,value
2019-04-14T00:00:51.618Z,984.531
2019-04-14T00:02:51.363Z,984.511
2019-04-14T00:04:50.933Z,984.494
2019-04-14T00:06:50.671Z,984.447
2019-04-14T00:08:50.417Z,984.427
2019-04-14T00:10:50.993Z,984.347
2019-04-14T00:12:51.631Z,984.336
2019-04-14T00:14:50.967Z,984.286
2019-04-14T00:16:51.254Z,984.248
2019-04-14T00:18:51.488Z,984.246
2019-04-14T00:20:49.689Z,984.212
2019-04-14T00:22:49.730Z,984.193
2019-04-14T00:24:51.311Z,984.175
2019-04-14T00:26:50.673Z,984.195
2019-04-14T00:28:51.399Z,984.222
2019-04-14T00:30:51.451Z,984.266
2019-04-14T00:32:51.011Z,984.271
2019-04-14T00:34:51.111Z,984.273
2019-04-14T00:36:50.470Z,984.285
2019-04-14T00:38:50.222Z,984.291
2019-04-14T00:40:50.327Z,984.278
2019-04-14T00:42:51.399Z,984.288
2019-04-14T00:44:49.852Z,984.306
2019-04-14T00:46:50.094Z,984.337
2019-04-14T00:48:50.300Z,984.363
2019-04-14T00:50:49.893Z,984.385
2019-04-14T00:52:50.355Z,984.384
2019-04-14T00:54:50.491Z,984.364
2019-04-14T00:56:50.062Z,984.350
2019-04-14T00:58:50.168Z,984.363
2019-04-14T01:00:51.939Z,984.375
2019-04-14T01:02:49.932Z,984.378
2019-04-14T01:04:51.559Z,984.368
2019-04-14T01:06:51.056Z,984.360
2019-04-14T01:08:51.375Z,984.357
2019-04-14T01:10:50.395Z,984.345
2019-04-14T01:12:50.051Z,984.348
2019-04-14T01:14:50.208Z,984.337
2019-04-14T01:16:49.724Z,984.353
2019-04-14T01:18:49.827Z,984.352
2019-04-14T01:20:49.937Z,984.341
2019-04-14T01:22:51.219Z,984.358
2019-04-14T01:24:51.252Z,984.359
2019-04-14T01:26:50.912Z,984.360
2019-04-14T01:28:50.670Z,984.368
2019-04-14T01:30:50.328Z,984.363
2019-04-14T01:32:50.450Z,984.360
2019-04-14T01:34:55.494Z,984.360
2019-04-14T01:36:50.274Z,984.361
2019-04-14T01:38:49.615Z,984.368
2019-04-14T01:40:51.104Z,984.390
2019-04-14T01:42:50.820Z,984.397
2019-04-14T01:44:50.527Z,984.415
2019-04-14T01:46:50.118Z,984.404
2019-04-14T01:48:50.297Z,984.403
2019-04-14T01:50:51.592Z,984.412
2019-04-14T01:52:50.372Z,984.415
2019-04-14T01:54:51.684Z,984.433
2019-04-14T01:56:51.565Z,984.453
2019-04-14T01:58:49.712Z,984.472
2019-04-14T02:00:51.496Z,984.482
2019-04-14T02:02:51.003Z,984.512
2019-04-14T02:04:50.909Z,984.532
2019-04-14T02:06:50.755Z,984.544
2019-04-14T02:08:50.538Z,984.562
2019-04-14T02:10:50.172Z,984.570
2019-04-14T02:12:51.478Z,984.576
2019-04-14T02:14:49.915Z,984.562
2019-04-14T02:17:00.477Z,984.576
2019-04-14T02:18:55.234Z,984.573
2019-04-14T02:20:51.438Z,984.558
2019-04-14T02:22:50.810Z,984.544
2019-04-14T02:24:50.540Z,984.528
2019-04-14T02:26:50.511Z,984.521
2019-04-14T02:28:50.651Z,984.519
2019-04-14T02:31:16.775Z,984.529
2019-04-14T02:33:38.774Z,984.553
2019-04-14T02:35:36.553Z,984.597
2019-04-14T02:37:33.568Z,984.596
2019-04-14T02:39:38.285Z,984.603
2019-04-14T02:41:35.548Z,984.603
2019-04-14T02:43:37.362Z,984.587
2019-04-14T02:49:43.576Z,984.609
2019-04-14T02:51:33.246Z,984.608
2019-04-14T02:53:41.313Z,984.580
2019-04-14T02:55:29.428Z,984.586
2019-04-14T02:57:37.167Z,984.589
2019-04-14T02:59:33.996Z,984.596
2019-04-14T03:01:37.029Z,984.598
2019-04-14T03:03:37.041Z,984.609
2019-04-14T03:05:33.879Z,984.616
2019-04-14T03:07:35.969Z,984.595
2019-04-14T03:09:41.295Z,984.587
2019-04-14T03:11:30.647Z,984.581
2019-04-14T03:13:34.357Z,984.566
2019-04-14T03:15:39.069Z,984.556
2019-04-14T03:17:36.590Z,984.581
2019-04-14T03:19:34.667Z,984.595
2019-04-14T03:23:40.131Z,984.586
2019-04-14T03:25:27.528Z,984.569
2019-04-14T03:27:39.608Z,984.555
2019-04-14T03:29:34.530Z,984.542
2019-04-14T03:31:58.687Z,984.532
2019-04-14T03:41:36.498Z,984.540
2019-04-14T03:45:35.496Z,984.533
2019-04-14T03:47:30.441Z,984.530
2019-04-14T03:49:36.676Z,984.540
2019-04-14T03:53:39.682Z,984.548
2019-04-14T03:55:20.074Z,984.547
2019-04-14T03:56:51.600Z,984.570
2019-04-14T03:58:51.300Z,984.600
2019-04-14T04:00:51.755Z,984.619
2019-04-14T04:02:51.345Z,984.642
2019-04-14T04:04:49.714Z,984.656
2019-04-14T04:06:51.265Z,984.677
2019-04-14T04:08:51.207Z,984.690
2019-04-14T04:10:51.316Z,984.683
2019-04-14T04:12:51.362Z,984.684
2019-04-14T04:14:51.285Z,984.672
2019-04-14T04:16:51.011Z,984.672
2019-04-14T04:19:09.091Z,984.694
2019-04-14T04:20:50.383Z,984.691
2019-04-14T04:22:50.521Z,984.683
2019-04-14T04:24:50.237Z,984.674
2019-04-14T04:26:50.042Z,984.677
2019-04-14T04:28:49.892Z,984.681
2019-04-14T04:30:50.111Z,984.693
2019-04-14T04:32:51.449Z,984.722
2019-04-14T04:34:51.427Z,984.722
2019-04-14T04:36:51.066Z,984.788
2019-04-14T04:38:51.205Z,984.847
2019-04-14T04:40:50.958Z,984.883
2019-04-14T04:42:50.702Z,984.944
2019-04-14T04:44:51.149Z,984.948
2019-04-14T04:46:50.684Z,984.956
2019-04-14T04:49:14.970Z,984.967
2019-04-14T04:50:50.099Z,985.001
2019-04-14T04:52:50.157Z,985.034
2019-04-14T04:54:51.553Z,985.045
2019-04-14T04:56:49.927Z,985.043
2019-04-14T04:58:50.394Z,985.056
2019-04-14T05:00:55.941Z,985.051
2019-04-14T05:02:50.805Z,985.056
2019-04-14T05:04:50.794Z,985.081
2019-04-14T05:06:50.804Z,985.095
2019-04-14T05:08:50.466Z,985.112
2019-04-14T05:10:50.556Z,985.112
2019-04-14T05:12:50.385Z,985.127
2019-04-14T05:14:50.480Z,985.168
2019-04-14T05:16:50.911Z,985.178
2019-04-14T05:18:51.085Z,985.194
2019-04-14T05:20:51.234Z,985.219
2019-04-14T05:22:51.048Z,985.249
2019-04-14T05:24:50.993Z,985.272
2019-04-14T05:26:50.790Z,985.310
2019-04-14T05:28:50.914Z,985.320
2019-04-14T05:30:50.611Z,985.341
2019-04-14T05:32:50.376Z,985.363
2019-04-14T05:34:50.419Z,985.399
2019-04-14T05:36:50.245Z,985.430
2019-04-14T05:38:51.670Z,985.440
2019-04-14T05:40:50.085Z,985.440
2019-04-14T05:42:50.182Z,985.457
2019-04-14T05:44:51.754Z,985.457
2019-04-14T05:46:49.979Z,985.518
2019-04-14T05:48:51.626Z,985.540
2019-04-14T05:50:49.655Z,985.550
2019-04-14T05:52:49.734Z,985.581
2019-04-14T05:54:49.931Z,985.579
2019-04-14T05:56:49.638Z,985.585
2019-04-14T05:58:49.715Z,985.596
2019-04-14T06:00:51.941Z,985.636
2019-04-14T06:02:50.925Z,985.671
2019-04-14T06:04:50.616Z,985.689
2019-04-14T06:06:49.982Z,985.702
2019-04-14T06:08:50.310Z,985.728
2019-04-14T06:10:50.525Z,985.739
2019-04-14T06:12:49.759Z,985.759
2019-04-14T06:14:49.841Z,985.747
2019-04-14T06:16:50.026Z,985.747
2019-04-14T06:18:50.201Z,985.746
2019-04-14T06:20:50.345Z,985.732
2019-04-14T06:22:50.401Z,985.723
2019-04-14T06:24:50.442Z,985.729
2019-04-14T06:26:49.637Z,985.683
2019-04-14T06:28:49.727Z,985.665
2019-04-14T06:30:49.855Z,985.637
2019-04-14T06:32:50.543Z,985.616
2019-04-14T06:34:50.245Z,985.607
2019-04-14T06:36:50.573Z,985.633
2019-04-14T06:38:49.685Z,985.666
2019-04-14T06:40:49.790Z,985.682
2019-04-14T06:42:49.851Z,985.692
2019-04-14T06:44:49.925Z,985.703
2019-04-14T06:46:50.293Z,985.701
2019-04-14T06:48:50.376Z,985.688
2019-04-14T06:50:50.495Z,985.703
2019-04-14T06:52:49.705Z,985.692
2019-04-14T06:54:49.880Z,985.685
2019-04-14T06:56:50.122Z,985.701
2019-04-14T06:58:50.189Z,985.705
2019-04-14T07:00:50.400Z,985.726
2019-04-14T07:02:49.797Z,985.719
2019-04-14T07:04:50.404Z,985.705
2019-04-14T07:06:51.698Z,985.709
2019-04-14T07:08:49.972Z,985.714
2019-04-14T07:10:50.073Z,985.728
2019-04-14T07:12:50.316Z,985.716
2019-04-14T07:14:50.503Z,985.726
2019-04-14T07:16:51.736Z,985.723
2019-04-14T07:18:49.907Z,985.716
2019-04-14T07:20:50.122Z,985.706
2019-04-14T07:22:50.279Z,985.699
2019-04-14T07:24:50.421Z,985.706
2019-04-14T07:26:49.723Z,985.709
2019-04-14T07:28:57.294Z,985.683
2019-04-14T07:30:50.486Z,985.693
2019-04-14T07:32:49.678Z,985.699
2019-04-14T07:34:50.330Z,985.724
2019-04-14T07:36:50.618Z,985.753
2019-04-14T07:38:50.536Z,985.755
2019-04-14T07:40:49.785Z,985.778
2019-04-14T07:42:50.543Z,985.748
2019-04-14T07:44:49.703Z,985.705
2019-04-14T07:46:50.056Z,985.666
2019-04-14T07:48:50.503Z,985.657
2019-04-14T07:50:50.575Z,985.603
2019-04-14T07:52:50.449Z,985.596
2019-04-14T07:54:49.748Z,985.553
2019-04-14T07:56:49.626Z,985.521
2019-04-14T07:58:49.990Z,985.519
2019-04-14T08:00:50.202Z,985.508
2019-04-14T08:02:50.342Z,985.477
2019-04-14T08:04:49.975Z,985.467
2019-04-14T08:06:50.303Z,985.444
2019-04-14T08:08:50.490Z,985.429
2019-04-14T08:10:50.535Z,985.406
2019-04-14T08:12:49.732Z,985.405
2019-04-14T08:14:49.779Z,985.386
2019-04-14T08:16:50.267Z,985.379
2019-04-14T08:18:50.440Z,985.387
2019-04-14T08:20:49.659Z,985.403
2019-04-14T08:22:49.907Z,985.408
2019-04-14T08:24:50.167Z,985.425
2019-04-14T08:26:50.541Z,985.417
2019-04-14T08:28:49.724Z,985.410
2019-04-14T08:30:49.956Z,985.424
2019-04-14T08:32:50.241Z,985.389
2019-04-14T08:34:49.870Z,985.361
2019-04-14T08:36:50.216Z,985.342
2019-04-14T08:38:50.423Z,985.320
2019-04-14T08:40:49.716Z,985.321
2019-04-14T08:42:49.992Z,985.321
2019-04-14T08:44:50.128Z,985.315
2019-04-14T08:46:50.434Z,985.297
2019-04-14T08:48:49.734Z,985.314
2019-04-14T08:50:49.671Z,985.313
2019-04-14T08:52:49.962Z,985.346
2019-04-14T08:54:50.042Z,985.332
2019-04-14T08:56:50.335Z,985.315
2019-04-14T08:58:50.380Z,985.321
2019-04-14T09:00:50.495Z,985.304
2019-04-14T09:02:50.345Z,985.299
2019-04-14T09:04:50.163Z,985.292
2019-04-14T09:06:50.588Z,985.276
2019-04-14T09:08:50.071Z,985.234
2019-04-14T09:10:50.271Z,985.210
2019-04-14T09:12:50.546Z,985.184
2019-04-14T09:14:57.866Z,985.181
2019-04-14T09:16:50.268Z,985.180
2019-04-14T09:18:53.382Z,985.189
2019-04-14T09:20:52.983Z,985.203
2019-04-14T09:22:50.264Z,985.190
2019-04-14T09:24:50.482Z,985.173
2019-04-14T09:26:49.912Z,985.184
2019-04-14T09:28:50.141Z,985.184
2019-04-14T09:30:50.409Z,985.165
2019-04-14T09:32:49.791Z,985.126
2019-04-14T09:34:50.439Z,985.151
2019-04-14T09:36:50.106Z,985.177
2019-04-14T09:38:50.367Z,985.186
2019-04-14T09:40:50.568Z,985.205
2019-04-14T09:42:49.662Z,985.230
2019-04-14T09:44:49.934Z,985.218
2019-04-14T09:46:50.419Z,985.254
2019-04-14T09:48:49.884Z,985.263
2019-04-14T09:50:50.381Z,985.235
2019-04-14T09:52:49.800Z,985.214
2019-04-14T09:54:50.251Z,985.214
2019-04-14T09:56:49.660Z,985.190
2019-04-14T09:58:50.309Z,985.223
2019-04-14T10:00:49.774Z,985.229
2019-04-14T10:02:50.132Z,985.191
2019-04-14T10:04:50.001Z,985.167
2019-04-14T10:06:50.540Z,985.162
2019-04-14T10:08:50.458Z,985.179
2019-04-14T10:10:49.837Z,985.197
2019-04-14T10:12:50.422Z,985.215
2019-04-14T10:14:49.789Z,985.201
2019-04-14T10:16:50.268Z,985.183
2019-04-14T10:18:50.504Z,985.180
2019-04-14T10:20:49.910Z,985.148
2019-04-14T10:22:50.357Z,985.151
2019-04-14T10:24:50.599Z,985.132
2019-04-14T10:26:50.094Z,985.119
2019-04-14T10:28:51.081Z,985.170
2019-04-14T10:30:50.465Z,985.190
2019-04-14T10:32:49.858Z,985.184
2019-04-14T10:34:49.601Z,985.175
2019-04-14T10:36:50.147Z,985.158
2019-04-14T10:38:50.593Z,985.138
2019-04-14T10:40:49.974Z,985.124
2019-04-14T10:42:50.408Z,985.095
2019-04-14T10:44:49.831Z,985.085
2019-04-14T10:46:50.336Z,985.079
2019-04-14T10:48:49.730Z,985.106
2019-04-14T10:50:50.103Z,985.120
2019-04-14T10:52:50.425Z,985.120
2019-04-14T10:54:49.708Z,985.145
2019-04-14T10:56:50.169Z,985.140
2019-04-14T10:58:50.576Z,985.112
2019-04-14T11:00:49.930Z,985.080
2019-04-14T11:02:50.267Z,985.049
2019-04-14T11:04:50.165Z,985.045
2019-04-14T11:06:49.710Z,985.024
2019-04-14T11:08:50.125Z,985.069
2019-04-14T11:10:50.463Z,985.066
2019-04-14T11:12:49.864Z,985.079
2019-04-14T11:14:50.298Z,985.101
2019-04-14T11:16:49.863Z,985.080
2019-04-14T11:18:50.298Z,985.043
2019-04-14T11:20:49.717Z,985.060
2019-04-14T11:23:03.896Z,985.057
2019-04-14T11:24:50.334Z,985.097
2019-04-14T11:26:49.832Z,985.147
2019-04-14T11:28:50.239Z,985.139
2019-04-14T11:30:49.617Z,985.136
2019-04-14T11:32:50.046Z,985.133
2019-04-14T11:34:49.683Z,985.127
2019-04-14T11:36:50.186Z,985.125
2019-04-14T11:38:49.690Z,985.125
2019-04-14T11:40:50.058Z,985.115
2019-04-14T11:42:53.106Z,985.128
2019-04-14T11:44:50.561Z,985.133
2019-04-14T11:46:50.240Z,985.122
2019-04-14T11:48:49.632Z,985.114
2019-04-14T11:50:50.043Z,985.113
2019-04-14T11:52:50.463Z,985.105
2019-04-14T11:54:49.840Z,985.120
2019-04-14T11:56:50.473Z,985.164
2019-04-14T11:58:49.873Z,985.214
2019-04-14T12:00:50.194Z,985.222
2019-04-14T12:02:50.606Z,985.267
2019-04-14T12:04:50.474Z,985.287
2019-04-14T12:06:50.016Z,985.297
2019-04-14T12:08:50.415Z,985.299
2019-04-14T12:10:49.975Z,985.330
2019-04-14T12:12:50.413Z,985.334
2019-04-14T12:14:49.914Z,985.311
2019-04-14T12:16:50.349Z,985.268
2019-04-14T12:18:49.691Z,985.299
2019-04-14T12:20:50.090Z,985.353
2019-04-14T12:22:50.447Z,985.350
2019-04-14T12:24:49.806Z,985.356
2019-04-14T12:26:50.202Z,985.336
2019-04-14T12:28:51.732Z,985.376
2019-04-14T12:30:51.331Z,985.420
2019-04-14T12:32:49.837Z,985.421
2019-04-14T12:34:50.509Z,985.421
2019-04-14T12:36:49.979Z,985.408
2019-04-14T12:38:50.529Z,985.414
2019-04-14T12:40:50.495Z,985.409
2019-04-14T12:42:50.103Z,985.386
2019-04-14T12:44:50.250Z,985.420
2019-04-14T12:46:49.736Z,985.457
2019-04-14T12:48:49.948Z,985.477
2019-04-14T12:50:50.217Z,985.493
2019-04-14T12:52:49.686Z,985.503
2019-04-14T12:54:49.978Z,985.483
2019-04-14T12:56:50.391Z,985.482
2019-04-14T12:58:49.661Z,985.470
2019-04-14T13:00:50.077Z,985.444
2019-04-14T13:02:50.312Z,985.424
2019-04-14T13:04:49.779Z,985.419
2019-04-14T13:06:50.133Z,985.434
2019-04-14T13:08:50.608Z,985.421
2019-04-14T13:10:49.965Z,985.395
2019-04-14T13:12:50.035Z,985.371
2019-04-14T13:14:50.470Z,985.350
2019-04-14T13:16:50.071Z,985.296
2019-04-14T13:18:50.478Z,985.336
2019-04-14T13:20:49.723Z,985.351
2019-04-14T13:22:50.104Z,985.351
2019-04-14T13:24:50.415Z,985.353
2019-04-14T13:26:49.898Z,985.372
2019-04-14T13:28:50.292Z,985.381
2019-04-14T13:30:49.647Z,985.415
2019-04-14T13:32:49.908Z,985.436
2019-04-14T13:34:50.508Z,985.450
2019-04-14T13:36:50.012Z,985.472
2019-04-14T13:38:50.383Z,985.490
2019-04-14T13:40:49.762Z,985.495
2019-04-14T13:42:50.183Z,985.512
2019-04-14T13:44:50.503Z,985.523
2019-04-14T13:46:50.123Z,985.545
2019-04-14T13:48:50.589Z,985.588
2019-04-14T13:50:49.846Z,985.574
2019-04-14T13:52:50.106Z,985.574
2019-04-14T13:54:50.450Z,985.618
2019-04-14T13:56:49.993Z,985.650
2019-04-14T13:58:50.293Z,985.691
2019-04-14T14:00:49.652Z,985.699
2019-04-14T14:02:50.040Z,985.709
2019-04-14T14:04:49.785Z,985.695
2019-04-14T14:06:50.344Z,985.714
2019-04-14T14:08:50.571Z,985.733
2019-04-14T14:10:49.908Z,985.726
2019-04-14T14:12:50.283Z,985.738
2019-04-14T14:14:49.672Z,985.765
2019-04-14T14:16:50.174Z,985.805
2019-04-14T14:18:50.555Z,985.810
2019-04-14T14:20:50.471Z,985.826
2019-04-14T14:23:00.057Z,985.824
2019-04-14T14:24:49.930Z,985.845
2019-04-14T14:26:50.375Z,985.863
2019-04-14T14:28:49.695Z,985.873
2019-04-14T14:30:49.972Z,985.898
2019-04-14T14:32:50.313Z,985.910
2019-04-14T14:34:50.083Z,985.910
2019-04-14T14:36:49.600Z,985.917
2019-04-14T14:38:49.939Z,985.924
2019-04-14T14:40:50.412Z,985.883
2019-04-14T14:42:49.991Z,985.878
2019-04-14T14:44:50.314Z,985.897
2019-04-14T14:46:49.812Z,985.932
2019-04-14T14:48:50.025Z,985.948
2019-04-14T14:50:50.433Z,985.949
2019-04-14T14:52:49.743Z,985.947
2019-04-14T14:54:49.961Z,985.966
2019-04-14T14:56:50.350Z,986.012
2019-04-14T14:58:50.580Z,986.020
2019-04-14T15:00:49.928Z,986.024
2019-04-14T15:02:50.366Z,986.027
2019-04-14T15:04:50.086Z,986.031
2019-04-14T15:06:50.428Z,986.052
2019-04-14T15:08:49.678Z,986.023
2019-04-14T15:10:50.089Z,986.028
2019-04-14T15:12:50.412Z,986.035
2019-04-14T15:14:49.688Z,986.042
2019-04-14T15:16:50.108Z,986.026
2019-04-14T15:18:50.404Z,986.024
2019-04-14T15:20:49.746Z,986.029
2019-04-14T15:22:52.581Z,986.003
2019-04-14T15:24:49.898Z,986.056
2019-04-14T15:26:50.327Z,986.055
2019-04-14T15:28:49.708Z,986.055
2019-04-14T15:30:49.995Z,986.103
2019-04-14T15:32:50.284Z,986.138
2019-04-14T15:34:49.895Z,986.180
2019-04-14T15:36:50.265Z,986.215
2019-04-14T15:38:50.454Z,986.244
2019-04-14T15:40:49.684Z,986.274
2019-04-14T15:42:49.837Z,986.271
2019-04-14T15:44:50.037Z,986.252
2019-04-14T15:46:50.567Z,986.272
2019-04-14T15:48:49.999Z,986.274
2019-04-14T15:50:50.302Z,986.264
2019-04-14T15:52:49.654Z,986.275
2019-04-14T15:54:49.972Z,986.295
2019-04-14T15:56:50.254Z,986.325
2019-04-14T15:58:50.349Z,986.339
2019-04-14T16:00:50.572Z,986.369
2019-04-14T16:02:49.655Z,986.422
2019-04-14T16:04:50.214Z,986.438
2019-04-14T16:06:49.617Z,986.458
2019-04-14T16:08:49.803Z,986.467
2019-04-14T16:10:49.896Z,986.474
2019-04-14T16:12:50.037Z,986.491
2019-04-14T16:14:50.408Z,986.458
2019-04-14T16:16:49.887Z,986.455
2019-04-14T16:18:50.077Z,986.449
2019-04-14T16:20:50.443Z,986.463
2019-04-14T16:22:49.829Z,986.511
2019-04-14T16:24:50.320Z,986.553
2019-04-14T16:26:49.923Z,986.564
2019-04-14T16:28:50.315Z,986.597
2019-04-14T16:30:50.200Z,986.607
2019-04-14T16:32:49.748Z,986.620
2019-04-14T16:34:50.169Z,986.631
2019-04-14T16:36:49.628Z,986.647
2019-04-14T16:38:49.865Z,986.657
2019-04-14T16:40:50.165Z,986.657
2019-04-14T16:42:50.614Z,986.675
2019-04-14T16:44:50.036Z,986.649
2019-04-14T16:46:50.465Z,986.672
2019-04-14T16:48:49.682Z,986.720
2019-04-14T16:50:49.918Z,986.766
2019-04-14T16:52:50.320Z,986.784
2019-04-14T16:54:50.498Z,986.797
2019-04-14T16:56:50.062Z,986.836
2019-04-14T16:58:50.328Z,986.846
2019-04-14T17:00:49.664Z,986.875
2019-04-14T17:02:50.509Z,986.885
2019-04-14T17:04:50.353Z,986.890
2019-04-14T17:06:49.943Z,986.907
2019-04-14T17:08:50.216Z,986.925
2019-04-14T17:10:50.352Z,987.026
2019-04-14T17:12:50.569Z,987.062
2019-04-14T17:14:49.843Z,987.116
2019-04-14T17:16:50.172Z,987.159
2019-04-14T17:18:50.337Z,987.192
2019-04-14T17:20:50.441Z,987.236
2019-04-14T17:22:49.903Z,987.256
2019-04-14T17:24:50.188Z,987.269
2019-04-14T17:26:50.568Z,987.278
2019-04-14T17:28:49.720Z,987.285
2019-04-14T17:30:50.011Z,987.287
2019-04-14T17:32:50.246Z,987.273
2019-04-14T17:34:49.734Z,987.290
2019-04-14T17:36:50.158Z,987.303
2019-04-14T17:38:50.226Z,987.303
2019-04-14T17:40:50.397Z,987.378
2019-04-14T17:42:50.234Z,987.421
2019-04-14T17:44:50.438Z,987.423
2019-04-14T17:46:49.635Z,987.441
2019-04-14T17:48:49.802Z,987.459
2019-04-14T17:50:50.421Z,987.474
2019-04-14T17:52:50.600Z,987.490
2019-04-14T17:54:49.772Z,987.511
2019-04-14T17:56:50.226Z,987.529
2019-04-14T17:58:50.380Z,987.529
2019-04-14T18:00:50.554Z,987.591
2019-04-14T18:02:49.812Z,987.603
2019-04-14T18:04:50.419Z,987.644
2019-04-14T18:06:50.416Z,987.675
2019-04-14T18:08:50.571Z,987.709
2019-04-14T18:10:50.316Z,987.724
2019-04-14T18:12:50.598Z,987.743
2019-04-14T18:14:49.852Z,987.763
2019-04-14T18:16:50.400Z,987.804
2019-04-14T18:18:49.863Z,987.849
2019-04-14T18:20:49.910Z,987.858
2019-04-14T18:22:50.014Z,987.894
2019-04-14T18:24:50.201Z,987.954
2019-04-14T18:26:50.506Z,987.984
2019-04-14T18:28:49.774Z,988.031
2019-04-14T18:30:50.256Z,988.051
2019-04-14T18:32:50.481Z,988.122
2019-04-14T18:34:50.435Z,988.179
2019-04-14T18:36:49.695Z,988.190
2019-04-14T18:38:49.613Z,988.248
2019-04-14T18:40:49.861Z,988.282
2019-04-14T18:42:50.100Z,988.302
2019-04-14T18:44:50.367Z,988.331
2019-04-14T18:46:50.665Z,988.351
2019-04-14T18:48:50.572Z,988.395
2019-04-14T18:50:52.300Z,988.439
2019-04-14T18:52:50.212Z,988.475
2019-04-14T18:54:55.233Z,988.503
2019-04-14T18:56:50.540Z,988.515
2019-04-14T18:58:49.705Z,988.576
2019-04-14T19:00:49.835Z,988.606
2019-04-14T19:02:50.085Z,988.606
2019-04-14T19:04:49.600Z,988.616
2019-04-14T19:06:49.896Z,988.627
2019-04-14T19:08:50.075Z,988.638
2019-04-14T19:10:50.164Z,988.685
2019-04-14T19:12:50.401Z,988.714
2019-04-14T19:14:50.097Z,988.744
2019-04-14T19:16:50.422Z,988.753
2019-04-14T19:18:49.695Z,988.791
2019-04-14T19:20:49.893Z,988.804
2019-04-14T19:22:50.097Z,988.818
2019-04-14T19:24:50.324Z,988.843
2019-04-14T19:26:50.562Z,988.843
2019-04-14T19:28:49.631Z,988.865
2019-04-14T19:30:49.801Z,988.871
2019-04-14T19:32:50.007Z,988.874
2019-04-14T19:34:50.542Z,988.878
2019-04-14T19:36:49.854Z,988.863
2019-04-14T19:38:50.057Z,988.880
2019-04-14T19:40:50.334Z,988.905
2019-04-14T19:42:50.423Z,988.924
2019-04-14T19:44:49.639Z,988.926
2019-04-14T19:46:49.954Z,988.937
2019-04-14T19:48:50.210Z,988.939
2019-04-14T19:50:50.306Z,988.946
2019-04-14T19:52:50.579Z,988.944
2019-04-14T19:54:49.718Z,988.985
2019-04-14T19:56:50.085Z,988.998
2019-04-14T19:58:50.254Z,989.010
2019-04-14T20:00:50.495Z,989.010
2019-04-14T20:02:49.759Z,989.045
2019-04-14T20:04:50.328Z,989.068
2019-04-14T20:06:50.455Z,989.085
2019-04-14T20:08:50.639Z,989.085
2019-04-14T20:10:49.862Z,989.115
2019-04-14T20:12:49.907Z,989.105
2019-04-14T20:14:50.017Z,989.116
2019-04-14T20:16:50.296Z,989.152
2019-04-14T20:18:50.544Z,989.178
2019-04-14T20:20:49.777Z,989.197
2019-04-14T20:22:50.063Z,989.219
2019-04-14T20:24:50.255Z,989.219
2019-04-14T20:26:50.484Z,989.228
2019-04-14T20:28:50.632Z,989.245
2019-04-14T20:30:49.727Z,989.256
2019-04-14T20:32:49.857Z,989.270
2019-04-14T20:34:50.295Z,989.263
2019-04-14T20:36:50.513Z,989.262
2019-04-14T20:38:50.605Z,989.267
2019-04-14T20:40:49.807Z,989.263
2019-04-14T20:42:50.097Z,989.251
2019-04-14T20:44:50.308Z,989.247
2019-04-14T20:46:50.601Z,989.243
2019-04-14T20:48:49.777Z,989.235
2019-04-14T20:50:50.039Z,989.247
2019-04-14T20:52:50.243Z,989.234
2019-04-14T20:54:50.454Z,989.240
2019-04-14T20:56:49.795Z,989.226
2019-04-14T20:58:49.950Z,989.238
2019-04-14T21:00:50.252Z,989.251
2019-04-14T21:02:50.394Z,989.254
2019-04-14T21:04:49.928Z,989.250
2019-04-14T21:06:50.332Z,989.236
2019-04-14T21:08:50.501Z,989.210
2019-04-14T21:10:49.979Z,989.202
2019-04-14T21:12:50.255Z,989.215
2019-04-14T21:14:50.667Z,989.216
2019-04-14T21:16:50.013Z,989.220
2019-04-14T21:18:50.163Z,989.208
2019-04-14T21:20:50.377Z,989.223
2019-04-14T21:22:50.576Z,989.248
2019-04-14T21:24:49.791Z,989.255
2019-04-14T21:26:50.013Z,989.255
2019-04-14T21:28:50.240Z,989.297
2019-04-14T21:30:50.324Z,989.297
2019-04-14T21:32:50.575Z,989.304
2019-04-14T21:34:49.921Z,989.290
2019-04-14T21:36:50.131Z,989.269
2019-04-14T21:38:50.281Z,989.278
2019-04-14T21:40:50.348Z,989.294
2019-04-14T21:42:50.636Z,989.308
2019-04-14T21:44:49.780Z,989.342
2019-04-14T21:46:50.020Z,989.359
2019-04-14T21:48:50.350Z,989.366
2019-04-14T21:50:50.514Z,989.374
2019-04-14T21:52:50.575Z,989.387
2019-04-14T21:54:49.747Z,989.383
2019-04-14T21:56:50.038Z,989.390
2019-04-14T21:58:50.322Z,989.394
2019-04-14T22:00:50.318Z,989.402
2019-04-14T22:02:50.481Z,989.420
2019-04-14T22:04:49.819Z,989.425
2019-04-14T22:06:50.257Z,989.429
2019-04-14T22:08:50.454Z,989.443
2019-04-14T22:10:49.604Z,989.447
2019-04-14T22:12:49.667Z,989.457
2019-04-14T22:14:49.898Z,989.448
2019-04-14T22:16:50.149Z,989.463
2019-04-14T22:18:50.325Z,989.451
2019-04-14T22:20:50.363Z,989.436
2019-04-14T22:22:50.412Z,989.445
2019-04-14T22:24:50.536Z,989.464
2019-04-14T22:26:49.871Z,989.464
2019-04-14T22:28:49.999Z,989.489
2019-04-14T22:30:50.163Z,989.496
2019-04-14T22:32:50.336Z,989.492
2019-04-14T22:34:49.803Z,989.506
2019-04-14T22:36:50.225Z,989.519
2019-04-14T22:38:50.281Z,989.533
2019-04-14T22:40:50.373Z,989.549
2019-04-14T22:42:50.430Z,989.560
2019-04-14T22:44:50.408Z,989.582
2019-04-14T22:46:50.570Z,989.579
2019-04-14T22:48:49.642Z,989.589
2019-04-14T22:50:49.723Z,989.578
2019-04-14T22:52:49.846Z,989.559
2019-04-14T22:54:50.014Z,989.553
2019-04-14T22:56:50.266Z,989.554
2019-04-14T22:58:50.378Z,989.557
2019-04-14T23:00:50.425Z,989.552
2019-04-14T23:02:50.488Z,989.575
2019-04-14T23:04:50.122Z,989.598
2019-04-14T23:06:50.379Z,989.616
2019-04-14T23:08:50.476Z,989.671
2019-04-14T23:10:49.633Z,989.688
2019-04-14T23:12:49.670Z,989.709
2019-04-14T23:14:49.868Z,989.722
2019-04-14T23:16:50.159Z,989.735
2019-04-14T23:18:50.366Z,989.742
2019-04-14T23:20:50.560Z,989.749
2019-04-14T23:22:49.754Z,989.760
2019-04-14T23:24:49.979Z,989.765
2019-04-14T23:26:53.532Z,989.752
2019-04-14T23:28:49.632Z,989.756
2019-04-14T23:30:49.738Z,989.756
2019-04-14T23:32:49.968Z,989.737
2019-04-14T23:34:50.598Z,989.745
2019-04-14T23:36:49.968Z,989.745
2019-04-14T23:38:50.164Z,989.747
2019-04-14T23:40:50.225Z,989.762
2019-04-14T23:42:50.420Z,989.769
2019-04-14T23:44:49.684Z,989.769
2019-04-14T23:46:49.903Z,989.773
2019-04-14T23:48:50.005Z,989.764
2019-04-14T23:50:50.120Z,989.745
2019-04-14T23:52:50.344Z,989.747
2019-04-14T23:54:50.448Z,989.743
2019-04-14T23:56:50.602Z,989.702
2019-04-14T23:58:49.696Z,989.681
